Time;durP1;ratioP1;P1;durP2;ratioP2;P2;SDS_P1;SDS_P2;PMS_P1;PMS_P2;Temp;Humidity;BMP_temperature;BMP_pressure;BME280_temperature;BME280_humidity;BME280_pressure;Samples;Min_cycle;Max_cycle;Signal;HPM_P1;HPM_P2
2022/07/08 00:01:33;;;;;;;7.80;3.90;;;15.00;99.90;;;;;;5014978;28;20182;-85
2022/07/08 00:03:59;;;;;;;6.50;4.03;;;15.00;99.90;;;;;;5022740;28;20209;-85
2022/07/08 00:06:24;;;;;;;8.70;4.13;;;14.90;99.90;;;;;;5027649;28;20866;-85
2022/07/08 00:08:50;;;;;;;7.50;4.53;;;14.80;99.90;;;;;;5020895;28;20441;-85
2022/07/08 00:11:16;;;;;;;9.07;3.67;;;14.80;99.90;;;;;;5024387;28;20204;-86
2022/07/08 00:13:41;;;;;;;15.73;4.40;;;14.70;99.90;;;;;;5023777;28;20214;-86
2022/07/08 00:16:07;;;;;;;11.30;4.23;;;14.70;99.90;;;;;;5021079;28;20260;-86
2022/07/08 00:18:32;;;;;;;11.00;4.33;;;15.90;99.90;;;;;;5017716;28;20186;-85
2022/07/08 00:20:58;;;;;;;6.50;3.67;;;14.50;99.90;;;;;;5018636;28;20224;-85
2022/07/08 00:23:23;;;;;;;11.70;4.10;;;14.50;99.90;;;;;;5020881;28;20233;-86
2022/07/08 00:25:49;;;;;;;4.17;3.03;;;14.40;99.90;;;;;;5026544;28;20174;-88
2022/07/08 00:28:15;;;;;;;8.60;3.67;;;14.40;99.90;;;;;;5034621;28;20193;-87
2022/07/08 00:30:40;;;;;;;11.80;4.23;;;14.30;99.90;;;;;;5036241;28;20196;-87
2022/07/08 00:33:06;;;;;;;12.30;4.60;;;14.20;99.90;;;;;;5033999;28;20194;-86
2022/07/08 00:35:31;;;;;;;6.47;3.50;;;14.20;99.90;;;;;;5033913;28;20217;-86
2022/07/08 00:37:57;;;;;;;6.67;4.17;;;14.10;99.90;;;;;;5034366;28;20220;-86
2022/07/08 00:40:22;;;;;;;18.10;4.33;;;14.10;99.90;;;;;;5034508;28;20208;-87
2022/07/08 00:42:48;;;;;;;9.30;3.70;;;14.00;99.90;;;;;;5033338;28;20193;-87
2022/07/08 00:45:15;;;;;;;9.63;4.13;;;13.90;99.90;;;;;;5034359;28;20269;-87
2022/07/08 00:47:41;;;;;;;10.70;3.33;;;13.80;99.90;;;;;;5035924;28;20166;-86
2022/07/08 00:50:09;;;;;;;9.43;4.40;;;13.80;99.90;;;;;;5033700;28;20166;-87
2022/07/08 00:52:35;;;;;;;7.25;3.28;;;13.70;99.90;;;;;;5013631;28;20242;-84
2022/07/08 00:55:01;;;;;;;10.32;3.40;;;13.60;99.90;;;;;;5010315;28;20205;-84
2022/07/08 00:57:27;;;;;;;9.80;4.22;;;13.40;99.90;;;;;;5020203;28;20193;-87
2022/07/08 00:59:54;;;;;;;5.67;3.50;;;13.40;99.90;;;;;;5044604;28;20182;-86
2022/07/08 01:02:20;;;;;;;9.20;4.40;;;13.30;99.90;;;;;;5032275;28;20452;-83
2022/07/08 01:04:46;;;;;;;6.70;4.50;;;13.20;99.90;;;;;;5028456;28;21156;-85
2022/07/08 01:07:11;;;;;;;15.90;4.37;;;13.10;99.90;;;;;;5032385;28;20188;-86
2022/07/08 01:09:37;;;;;;;3.90;3.27;;;13.10;99.90;;;;;;5031950;28;20227;-86
2022/07/08 01:12:04;;;;;;;5.83;3.73;;;13.00;99.90;;;;;;5033832;28;20194;-85
2022/07/08 01:14:29;;;;;;;11.45;4.40;;;12.90;99.90;;;;;;5026888;28;20231;-85
2022/07/08 01:16:55;;;;;;;7.83;3.30;;;12.80;99.90;;;;;;5031376;28;20188;-83
2022/07/08 01:19:21;;;;;;;5.77;3.43;;;12.80;99.90;;;;;;5023983;28;20188;-83
2022/07/08 01:21:46;;;;;;;6.20;3.27;;;12.80;99.90;;;;;;5029673;28;20194;-82
2022/07/08 01:24:12;;;;;;;9.30;3.80;;;12.70;99.90;;;;;;5023883;28;20182;-82
2022/07/08 01:26:37;;;;;;;11.70;3.73;;;12.70;99.90;;;;;;5024686;28;20186;-83
2022/07/08 01:29:03;;;;;;;6.90;4.47;;;12.70;99.90;;;;;;5027675;28;20777;-83
2022/07/08 01:31:29;;;;;;;8.63;3.70;;;12.70;99.90;;;;;;5027931;28;20183;-86
2022/07/08 01:33:54;;;;;;;7.57;3.30;;;12.70;99.90;;;;;;5034111;28;20204;-86
2022/07/08 01:36:20;;;;;;;9.10;3.40;;;12.70;99.90;;;;;;5033514;28;20245;-86
2022/07/08 01:38:46;;;;;;;9.20;2.93;;;12.70;99.90;;;;;;5033449;28;20208;-86
2022/07/08 01:41:11;;;;;;;10.10;3.30;;;12.70;99.90;;;;;;5033625;28;20187;-86
2022/07/08 01:43:37;;;;;;;9.00;4.23;;;12.70;99.90;;;;;;5030541;28;20232;-86
2022/07/08 01:46:03;;;;;;;4.80;3.50;;;12.60;99.90;;;;;;5030381;28;20181;-87
2022/07/08 01:48:28;;;;;;;6.40;3.83;;;12.60;99.90;;;;;;5037310;28;20186;-86
2022/07/08 01:50:54;;;;;;;6.23;4.00;;;12.60;99.90;;;;;;5029349;28;20217;-86
2022/07/08 01:53:19;;;;;;;8.90;4.10;;;12.50;99.90;;;;;;5025902;28;20221;-83
2022/07/08 01:55:45;;;;;;;11.57;4.30;;;12.30;99.90;;;;;;5014008;28;20189;-84
2022/07/08 01:58:11;;;;;;;7.22;3.50;;;12.50;99.90;;;;;;5020344;28;20214;-84
2022/07/08 02:00:37;;;;;;;8.53;4.30;;;12.50;99.90;;;;;;5021153;28;20198;-83
2022/07/08 02:03:03;;;;;;;8.93;3.90;;;12.50;99.90;;;;;;5018519;28;20453;-83
2022/07/08 02:05:28;;;;;;;5.80;3.80;;;12.40;99.90;;;;;;5022271;28;20181;-86
2022/07/08 02:07:54;;;;;;;9.20;4.50;;;12.40;99.90;;;;;;5021057;28;20198;-85
2022/07/08 02:10:20;;;;;;;12.20;5.77;;;12.40;99.90;;;;;;5028810;28;20708;-85
2022/07/08 02:12:45;;;;;;;12.27;4.20;;;12.40;99.90;;;;;;5019081;28;20464;-83
2022/07/08 02:15:11;;;;;;;9.40;4.50;;;12.30;99.90;;;;;;5031298;28;20193;-84
2022/07/08 02:17:39;;;;;;;7.20;4.20;;;12.20;99.90;;;;;;5021910;28;20182;-85
2022/07/08 02:20:06;;;;;;;5.97;4.38;;;12.20;99.90;;;;;;5023291;28;20186;-85
2022/07/08 02:22:32;;;;;;;7.85;4.20;;;12.10;99.90;;;;;;5038286;28;20209;-86
2022/07/08 02:24:58;;;;;;;9.00;4.10;;;12.10;99.90;;;;;;5019833;28;20225;-85
2022/07/08 02:27:24;;;;;;;13.80;4.43;;;12.10;99.90;;;;;;5022921;28;20224;-86
2022/07/08 02:29:49;;;;;;;8.63;4.50;;;12.10;99.90;;;;;;5025874;28;20209;-86
2022/07/08 02:32:15;;;;;;;8.07;3.50;;;12.20;99.90;;;;;;5023467;28;20209;-86
2022/07/08 02:34:41;;;;;;;6.83;3.53;;;12.20;99.90;;;;;;5025399;28;20197;-86
2022/07/08 02:37:07;;;;;;;9.27;3.83;;;12.10;99.90;;;;;;5019392;28;20469;-85
2022/07/08 02:39:32;;;;;;;5.87;3.60;;;12.10;99.90;;;;;;5004351;28;20178;-85
2022/07/08 02:41:58;;;;;;;22.80;4.87;;;12.10;99.90;;;;;;5017322;28;20209;-86
2022/07/08 02:44:23;;;;;;;9.83;3.80;;;12.10;99.90;;;;;;5025860;28;20601;-86
2022/07/08 02:46:49;;;;;;;13.57;4.30;;;12.00;99.90;;;;;;5024406;28;20673;-86
2022/07/08 02:49:14;;;;;;;11.13;4.20;;;12.00;99.90;;;;;;5020568;28;21139;-85
2022/07/08 02:51:40;;;;;;;14.43;4.60;;;12.00;99.90;;;;;;5025829;28;20662;-85
2022/07/08 02:54:06;;;;;;;13.67;5.23;;;12.00;99.90;;;;;;5024972;28;20260;-86
2022/07/08 02:56:33;;;;;;;13.80;4.22;;;12.00;99.90;;;;;;5023633;28;20197;-86
2022/07/08 02:58:59;;;;;;;5.60;4.00;;;12.00;99.90;;;;;;5022981;28;20210;-85
2022/07/08 03:01:25;;;;;;;8.18;3.90;;;12.00;99.90;;;;;;5036007;28;20182;-83
2022/07/08 03:03:50;;;;;;;8.57;5.73;;;12.00;99.90;;;;;;5017562;28;20609;-82
2022/07/08 03:06:16;;;;;;;15.70;3.73;;;12.00;99.90;;;;;;5020097;28;20534;-84
2022/07/08 03:08:42;;;;;;;9.27;4.40;;;11.90;99.90;;;;;;5021322;28;20170;-84
2022/07/08 03:11:07;;;;;;;6.57;3.53;;;11.70;99.90;;;;;;5023010;28;20178;-84
2022/07/08 03:13:35;;;;;;;8.10;4.50;;;11.60;99.90;;;;;;5029217;28;20633;-83
2022/07/08 03:16:02;;;;;;;9.65;4.75;;;11.50;99.90;;;;;;5025040;28;20190;-84
2022/07/08 03:18:28;;;;;;;6.97;4.47;;;11.60;99.90;;;;;;5019540;28;20220;-85
2022/07/08 03:20:53;;;;;;;9.07;4.13;;;11.60;99.90;;;;;;5021562;28;20197;-84
2022/07/08 03:23:19;;;;;;;7.60;5.13;;;11.50;99.90;;;;;;5016324;28;20316;-85
2022/07/08 03:25:45;;;;;;;13.93;4.80;;;11.50;99.90;;;;;;5021436;28;20629;-85
2022/07/08 03:28:10;;;;;;;6.37;4.00;;;11.40;99.90;;;;;;5016476;28;20678;-85
2022/07/08 03:30:36;;;;;;;7.13;4.10;;;11.40;99.90;;;;;;5017746;28;20208;-85
2022/07/08 03:33:01;;;;;;;10.40;4.13;;;11.30;99.90;;;;;;5019271;28;20193;-84
2022/07/08 03:35:27;;;;;;;8.30;4.00;;;11.30;99.90;;;;;;5022605;28;20259;-85
2022/07/08 03:37:52;;;;;;;12.53;4.60;;;11.20;99.90;;;;;;5025197;28;20186;-84
2022/07/08 03:43:02;;;;;;;15.98;4.40;;;11.10;99.90;;;;;;5021545;28;20205;-84
2022/07/08 03:45:27;;;;;;;7.93;3.93;;;11.20;99.90;;;;;;5024876;28;20190;-85
2022/07/08 03:47:53;;;;;;;10.60;4.17;;;11.30;99.90;;;;;;5023055;28;20205;-86
2022/07/08 03:50:19;;;;;;;6.47;3.57;;;11.40;99.90;;;;;;5026231;28;20217;-88
2022/07/08 03:52:46;;;;;;;12.90;4.20;;;11.40;99.90;;;;;;5033621;28;20220;-90
2022/07/08 03:55:11;;;;;;;12.55;4.40;;;11.50;99.90;;;;;;5035736;28;20848;-89
2022/07/08 03:57:37;;;;;;;5.73;3.50;;;11.50;99.90;;;;;;5036577;28;20177;-88
2022/07/08 04:00:05;;;;;;;6.77;3.53;;;11.60;99.90;;;;;;5036060;28;20173;-89
2022/07/08 04:02:30;;;;;;;10.95;4.03;;;11.60;99.90;;;;;;5036322;28;20194;-87
2022/07/08 04:04:56;;;;;;;10.97;3.63;;;11.70;99.90;;;;;;5035688;28;20560;-87
2022/07/08 04:07:21;;;;;;;8.27;4.30;;;11.80;99.90;;;;;;5030428;28;20171;-86
2022/07/08 04:09:47;;;;;;;7.50;3.90;;;11.90;99.90;;;;;;5029609;28;20174;-85
2022/07/08 04:12:12;;;;;;;7.30;3.27;;;12.00;99.90;;;;;;5037693;28;20206;-86
2022/07/08 04:14:38;;;;;;;5.10;3.13;;;12.10;99.90;;;;;;5031520;28;20205;-86
2022/07/08 04:17:04;;;;;;;9.47;3.30;;;12.30;99.90;;;;;;5023785;28;20186;-86
2022/07/08 04:19:29;;;;;;;10.55;3.60;;;12.50;99.90;;;;;;5024800;28;20193;-86
2022/07/08 04:21:55;;;;;;;13.37;2.70;;;12.90;99.90;;;;;;5023647;28;20202;-87
2022/07/08 04:24:20;;;;;;;7.30;2.53;;;14.40;99.90;;;;;;5017891;28;20258;-85
2022/07/08 04:26:46;;;;;;;4.47;2.50;;;16.30;99.90;;;;;;5020128;28;20190;-88
2022/07/08 04:29:11;;;;;;;5.47;1.97;;;18.20;99.90;;;;;;5015535;28;20181;-86
2022/07/08 04:31:37;;;;;;;3.60;2.17;;;20.30;99.90;;;;;;5024879;28;20213;-84
2022/07/08 04:34:02;;;;;;;3.30;1.90;;;22.20;99.90;;;;;;5029333;28;20259;-85
2022/07/08 04:36:28;;;;;;;9.40;2.30;;;23.60;99.90;;;;;;5026817;28;20182;-84
2022/07/08 04:38:54;;;;;;;3.63;1.70;;;24.80;99.90;;;;;;5032916;28;20190;-89
2022/07/08 04:41:19;;;;;;;10.97;2.83;;;26.40;99.90;;;;;;5028753;28;20659;-86
2022/07/08 04:43:45;;;;;;;21.60;3.20;;;27.90;96.50;;;;;;5029706;28;20559;-82
2022/07/08 04:46:11;;;;;;;7.80;2.40;;;30.60;79.10;;;;;;5021986;28;22386;-83
2022/07/08 04:48:37;;;;;;;10.10;2.43;;;31.60;80.30;;;;;;5018376;28;20299;-81
2022/07/08 04:51:03;;;;;;;8.23;2.10;;;30.60;68.50;;;;;;5020573;28;20998;-82
2022/07/08 04:53:28;;;;;;;9.90;2.30;;;30.80;65.10;;;;;;5042055;22;20258;-84
2022/07/08 04:55:54;;;;;;;8.53;2.20;;;30.70;59.90;;;;;;5028127;28;20216;-86
2022/07/08 04:58:19;;;;;;;6.37;2.30;;;30.20;58.10;;;;;;5035561;28;20648;-86
2022/07/08 05:00:45;;;;;;;4.87;2.07;;;29.50;58.80;;;;;;5029124;28;20916;-85
2022/07/08 05:03:10;;;;;;;5.07;1.87;;;29.50;59.40;;;;;;5030536;28;20212;-86
2022/07/08 05:05:36;;;;;;;6.27;2.07;;;29.70;59.20;;;;;;5024950;28;20192;-84
2022/07/08 05:08:03;;;;;;;11.20;2.50;;;29.60;58.00;;;;;;5028831;28;20595;-86
2022/07/08 05:10:29;;;;;;;61.23;5.43;;;29.00;57.20;;;;;;5020965;28;20193;-84
2022/07/08 05:12:55;;;;;;;5.43;1.63;;;29.50;57.50;;;;;;5033227;28;20455;-86
2022/07/08 05:15:21;;;;;;;8.60;1.80;;;28.60;56.10;;;;;;5021460;28;20307;-83
2022/07/08 05:17:47;;;;;;;7.20;1.97;;;29.70;58.20;;;;;;5025899;28;20518;-84
2022/07/08 05:20:13;;;;;;;8.93;2.20;;;30.20;55.00;;;;;;5025769;28;20448;-85
2022/07/08 05:22:39;;;;;;;5.63;1.83;;;30.50;53.90;;;;;;5022642;28;20453;-87
2022/07/08 05:25:06;;;;;;;7.90;2.20;;;31.80;54.60;;;;;;5020894;28;20962;-86
2022/07/08 05:27:31;;;;;;;7.80;1.90;;;31.60;51.40;;;;;;5027500;28;20456;-84
2022/07/08 05:29:57;;;;;;;4.53;1.90;;;31.40;52.00;;;;;;5024066;28;20445;-87
2022/07/08 05:32:23;;;;;;;5.20;1.90;;;31.00;52.20;;;;;;5023626;28;20280;-85
2022/07/08 05:34:48;;;;;;;6.47;2.07;;;29.70;51.90;;;;;;5022760;28;20202;-85
2022/07/08 05:37:14;;;;;;;1.97;1.40;;;29.40;53.00;;;;;;5018537;28;20760;-87
2022/07/08 05:39:41;;;;;;;6.63;2.17;;;29.90;53.20;;;;;;5021601;28;20697;-88
2022/07/08 05:42:10;;;;;;;3.23;1.80;;;29.70;51.90;;;;;;5022492;28;20191;-85
2022/07/08 05:44:37;;;;;;;5.30;2.00;;;30.20;52.80;;;;;;5027605;28;20549;-84
2022/07/08 05:47:07;;;;;;;3.57;1.73;;;30.40;52.20;;;;;;5021584;28;20443;-86
2022/07/08 05:49:34;;;;;;;3.20;1.80;;;29.20;53.20;;;;;;5019612;28;20432;-88
2022/07/08 05:52:00;;;;;;;8.47;2.07;;;30.30;54.70;;;;;;5019726;28;20410;-87
2022/07/08 05:54:26;;;;;;;7.53;1.93;;;31.70;53.20;;;;;;5016478;28;20515;-87
2022/07/08 05:56:51;;;;;;;8.53;2.27;;;31.50;50.30;;;;;;5026187;28;20182;-87
2022/07/08 05:59:17;;;;;;;5.87;2.20;;;30.70;51.60;;;;;;5025343;28;20180;-87
2022/07/08 06:01:42;;;;;;;4.90;2.07;;;30.50;51.00;;;;;;5018437;28;20258;-88
2022/07/08 06:04:08;;;;;;;7.00;1.90;;;30.20;52.20;;;;;;5014963;28;20215;-85
2022/07/08 06:06:34;;;;;;;3.97;1.80;;;30.90;51.60;;;;;;5020437;28;20709;-83
2022/07/08 06:08:59;;;;;;;12.73;3.10;;;32.50;49.50;;;;;;5016514;28;20262;-85
2022/07/08 06:11:25;;;;;;;9.93;2.93;;;32.30;48.20;;;;;;5013665;28;20671;-84
2022/07/08 06:13:50;;;;;;;7.07;2.17;;;32.20;49.70;;;;;;5020356;28;21867;-88
2022/07/08 06:16:16;;;;;;;6.37;2.27;;;30.80;48.80;;;;;;5023386;28;20648;-86
2022/07/08 06:18:42;;;;;;;6.23;2.47;;;30.70;50.30;;;;;;5019760;28;20187;-86
2022/07/08 06:21:08;;;;;;;4.20;2.47;;;31.20;49.50;;;;;;5017259;28;20758;-86
2022/07/08 06:23:35;;;;;;;9.60;2.90;;;;;;;;;;5014094;28;20182;-81
2022/07/08 06:26:01;;;;;;;8.50;2.97;;;;;;;;;;5022163;28;20435;-84
2022/07/08 06:28:28;;;;;;;3.10;2.03;;;31.30;47.70;;;;;;5021383;28;20432;-86
2022/07/08 06:30:54;;;;;;;6.93;2.90;;;31.10;49.20;;;;;;5022912;28;20431;-86
2022/07/08 06:33:20;;;;;;;9.63;2.90;;;31.10;49.60;;;;;;5024439;28;22083;-86
2022/07/08 06:35:46;;;;;;;6.00;3.37;;;;;;;;;;5026485;28;20573;-85
2022/07/08 06:38:12;;;;;;;3.27;3.00;;;;;;;;;;5023219;28;20655;-85
2022/07/08 06:40:37;;;;;;;4.10;3.07;;;;;;;;;;5024169;28;20426;-85
2022/07/08 06:43:03;;;;;;;8.57;3.83;;;32.80;45.70;;;;;;5023398;28;20988;-85
2022/07/08 06:45:32;;;;;;;8.63;3.80;;;33.10;46.20;;;;;;5022272;28;20539;-83
2022/07/08 06:48:02;;;;;;;6.97;4.07;;;32.90;45.70;;;;;;5025252;28;20191;-84
2022/07/08 06:50:28;;;;;;;10.13;4.20;;;33.70;45.60;;;;;;5026524;28;20442;-84
2022/07/08 06:52:54;;;;;;;4.60;4.20;;;32.90;44.20;;;;;;5041033;28;20467;-83
2022/07/08 06:55:20;;;;;;;9.83;4.50;;;32.50;44.60;;;;;;5023691;28;20454;-84
2022/07/08 06:57:46;;;;;;;5.90;4.10;;;33.00;44.50;;;;;;5022626;28;20178;-84
2022/07/08 07:00:12;;;;;;;11.70;4.43;;;32.80;46.10;;;;;;5027503;28;20444;-85
2022/07/08 07:02:38;;;;;;;10.60;4.03;;;32.40;44.80;;;;;;5022272;28;20207;-85
2022/07/08 07:05:05;;;;;;;7.10;4.33;;;33.00;44.50;;;;;;5021451;28;20503;-86
2022/07/08 07:07:30;;;;;;;6.10;3.90;;;31.70;44.60;;;;;;5039057;28;20283;-85
2022/07/08 07:09:56;;;;;;;5.87;3.50;;;32.30;44.90;;;;;;5022082;28;20546;-86
2022/07/08 07:12:22;;;;;;;4.90;4.60;;;35.90;40.90;;;;;;5030642;28;20184;-84
2022/07/08 07:14:48;;;;;;;9.00;6.00;;;;;;;;;;5029395;28;20758;-88
2022/07/08 07:17:21;;;;;;;5.27;4.60;;;32.50;38.80;;;;;;5026423;28;20526;-84
2022/07/08 07:19:48;;;;;;;9.87;4.70;;;32.30;39.60;;;;;;5024458;28;21738;-88
2022/07/08 07:22:14;;;;;;;6.90;4.43;;;29.20;43.90;;;;;;5017975;28;20439;-85
2022/07/08 07:24:41;;;;;;;4.63;3.60;;;;;;;;;;5021420;28;21074;-86
2022/07/08 07:27:06;;;;;;;4.13;3.73;;;32.40;44.30;;;;;;5026485;28;20432;-89
2022/07/08 07:29:32;;;;;;;8.33;3.80;;;32.20;41.20;;;;;;5026438;28;20470;-85
2022/07/08 07:31:58;;;;;;;3.50;3.10;;;29.90;43.40;;;;;;5019647;28;20188;-88
2022/07/08 07:34:23;;;;;;;7.23;2.73;;;28.00;46.80;;;;;;5025619;28;20209;-84
2022/07/08 07:36:49;;;;;;;3.70;2.40;;;;;;;;;;5021286;28;21164;-83
2022/07/08 07:39:16;;;;;;;6.00;2.63;;;26.00;51.30;;;;;;5021480;28;20193;-84
2022/07/08 07:41:42;;;;;;;3.70;2.00;;;25.00;52.40;;;;;;5022675;28;20524;-83
2022/07/08 07:44:07;;;;;;;2.80;1.80;;;24.00;54.50;;;;;;5030475;28;20487;-84
2022/07/08 07:46:33;;;;;;;7.03;2.07;;;24.10;55.10;;;;;;5032482;28;20181;-83
2022/07/08 07:48:59;;;;;;;4.97;2.17;;;24.50;54.60;;;;;;5025261;28;20186;-86
2022/07/08 07:51:25;;;;;;;6.50;2.20;;;25.50;54.40;;;;;;5027627;28;20440;-87
2022/07/08 07:53:51;;;;;;;4.73;2.37;;;27.10;53.80;;;;;;5027846;28;20524;-85
2022/07/08 07:56:18;;;;;;;4.37;2.23;;;26.60;50.20;;;;;;5034313;28;20436;-83
2022/07/08 07:58:43;;;;;;;7.23;1.93;;;24.70;52.40;;;;;;5028250;28;20849;-86
2022/07/08 08:01:09;;;;;;;4.93;1.90;;;23.40;53.70;;;;;;5025639;28;20449;-86
2022/07/08 08:03:35;;;;;;;10.30;1.80;;;22.90;56.00;;;;;;5022109;28;20193;-87
2022/07/08 08:06:01;;;;;;;6.47;1.77;;;22.60;58.20;;;;;;5028839;28;20931;-85
2022/07/08 08:08:26;;;;;;;23.13;2.50;;;24.80;59.30;;;;;;5028508;28;20182;-84
2022/07/08 08:10:53;;;;;;;2.73;1.37;;;28.40;52.90;;;;;;5022525;28;20988;-84
2022/07/08 08:13:19;;;;;;;3.80;1.90;;;29.70;49.70;;;;;;5023037;28;20204;-84
2022/07/08 08:15:45;;;;;;;4.83;2.30;;;30.50;46.90;;;;;;5025196;28;20956;-85
2022/07/08 08:18:11;;;;;;;5.57;2.60;;;28.60;45.20;;;;;;5030933;28;20499;-86
2022/07/08 08:20:37;;;;;;;5.20;2.53;;;29.10;45.30;;;;;;5025116;28;20811;-84
2022/07/08 08:23:03;;;;;;;3.30;2.00;;;27.30;47.00;;;;;;5026429;28;20229;-88
2022/07/08 08:25:29;;;;;;;4.20;2.27;;;28.50;46.00;;;;;;5024055;28;20452;-83
2022/07/08 08:27:56;;;;;;;7.07;2.43;;;28.00;46.40;;;;;;5025486;28;20449;-85
2022/07/08 08:30:22;;;;;;;7.83;3.03;;;26.50;48.10;;;;;;5031526;28;20531;-86
2022/07/08 08:32:48;;;;;;;6.27;2.30;;;25.00;50.80;;;;;;5025143;28;20468;-86
2022/07/08 08:35:14;;;;;;;3.80;2.10;;;25.90;52.90;;;;;;5024451;28;20464;-85
2022/07/08 08:37:39;;;;;;;6.53;2.20;;;26.40;49.10;;;;;;5026119;28;20182;-86
2022/07/08 08:40:08;;;;;;;9.43;2.67;;;24.20;50.30;;;;;;5024175;28;21076;-87
2022/07/08 08:42:34;;;;;;;7.57;2.00;;;22.60;52.30;;;;;;5021923;28;20178;-85
2022/07/08 08:45:00;;;;;;;3.60;1.73;;;22.50;55.60;;;;;;5030363;28;20433;-86
2022/07/08 08:47:32;;;;;;;5.23;1.80;;;22.00;56.60;;;;;;5021604;28;20663;-87
2022/07/08 08:52:48;;;;;;;6.83;1.77;;;24.90;55.30;;;;;;5023351;28;20503;-86
2022/07/08 08:55:33;;;;;;;7.87;1.90;;;28.10;51.00;;;;;;5028362;28;20491;-82
2022/07/08 08:58:08;;;;;;;2.27;2.07;;;30.70;45.70;;;;;;5020221;28;20457;-85
2022/07/08 09:00:35;;;;;;;8.40;3.40;;;32.90;44.10;;;;;;5029430;28;20435;-84
2022/07/08 09:03:01;;;;;;;6.40;4.77;;;;;;;;;;5021376;28;21246;-85
2022/07/08 09:05:28;;;;;;;7.70;5.40;;;35.00;37.60;;;;;;5022112;28;20438;-84
2022/07/08 09:07:54;;;;;;;8.90;5.80;;;35.20;38.90;;;;;;5021042;28;20873;-86
2022/07/08 09:10:20;;;;;;;9.83;6.03;;;;;;;;;;5025383;28;20895;-87
2022/07/08 09:13:06;;;;;;;7.30;5.60;;;31.70;39.20;;;;;;5022024;28;20474;-84
2022/07/08 09:15:39;;;;;;;7.77;4.90;;;31.00;41.60;;;;;;5022899;28;20477;-85
2022/07/08 09:18:08;;;;;;;5.70;5.30;;;32.10;40.40;;;;;;5024314;28;22745;-83
2022/07/08 09:20:54;;;;;;;7.57;5.20;;;33.00;40.50;;;;;;5021953;28;20516;-87
2022/07/08 09:23:24;;;;;;;5.90;5.03;;;31.40;41.60;;;;;;5024507;28;20458;-87
2022/07/08 09:25:55;;;;;;;4.37;4.07;;;30.00;42.70;;;;;;5030056;28;20539;-86
2022/07/08 09:28:36;;;;;;;3.13;2.40;;;27.60;42.60;;;;;;5030736;28;20471;-85
2022/07/08 09:31:21;;;;;;;4.97;2.90;;;25.30;48.10;;;;;;5027977;28;20453;-88
2022/07/08 09:33:54;;;;;;;4.40;2.00;;;24.20;50.60;;;;;;5026265;28;20901;-85
2022/07/08 09:36:20;;;;;;;3.43;2.07;;;;;;;;;;5032218;28;20471;-87
2022/07/08 09:38:45;;;;;;;3.30;2.10;;;23.80;52.10;;;;;;5027204;28;20432;-87
2022/07/08 09:41:20;;;;;;;9.80;2.33;;;23.50;51.30;;;;;;5024139;28;20442;-86
2022/07/08 09:43:49;;;;;;;5.17;2.50;;;22.50;52.70;;;;;;5027074;28;20593;-85
2022/07/08 09:46:15;;;;;;;4.77;1.87;;;22.20;53.20;;;;;;5023899;28;20436;-85
2022/07/08 09:48:41;;;;;;;11.93;2.50;;;22.50;56.40;;;;;;5025470;28;20453;-84
2022/07/08 09:51:09;;;;;;;5.80;2.07;;;24.30;56.70;;;;;;5023415;28;20437;-84
2022/07/08 09:53:36;;;;;;;7.67;2.10;;;26.50;52.70;;;;;;5024826;28;21048;-86
2022/07/08 09:56:03;;;;;;;6.73;2.17;;;28.00;48.50;;;;;;5038155;28;20429;-83
2022/07/08 09:58:30;;;;;;;3.20;2.20;;;28.90;48.30;;;;;;5024966;28;20423;-84
2022/07/08 10:00:57;;;;;;;3.07;2.50;;;31.50;45.20;;;;;;5029252;28;20434;-84
2022/07/08 10:03:24;;;;;;;3.50;2.70;;;30.40;42.50;;;;;;5022902;28;20457;-83
2022/07/08 10:05:50;;;;;;;5.30;3.00;;;30.20;42.20;;;;;;5025827;28;20443;-85
2022/07/08 10:08:17;;;;;;;4.13;3.47;;;30.60;42.90;;;;;;5026089;28;20433;-88
2022/07/08 10:10:45;;;;;;;4.33;2.50;;;29.70;44.60;;;;;;5025608;28;20180;-84
2022/07/08 10:13:15;;;;;;;3.50;1.70;;;29.10;45.80;;;;;;5025944;28;20485;-84
2022/07/08 10:15:47;;;;;;;4.43;2.30;;;28.00;44.80;;;;;;5045494;28;20528;-84
2022/07/08 10:18:23;;;;;;;5.53;2.53;;;28.00;45.20;;;;;;5028083;28;20503;-84
2022/07/08 10:20:57;;;;;;;6.30;2.70;;;26.80;46.20;;;;;;5026563;28;20543;-85
2022/07/08 10:23:45;;;;;;;3.10;1.70;;;26.40;49.30;;;;;;5021167;28;20525;-84
2022/07/08 10:26:11;;;;;;;5.07;2.53;;;26.70;46.30;;;;;;5027994;28;20440;-84
2022/07/08 10:28:44;;;;;;;5.93;2.13;;;27.80;46.70;;;;;;5028333;28;20503;-83
2022/07/08 10:31:21;;;;;;;3.80;2.40;;;28.30;46.60;;;;;;5030206;28;20430;-83
2022/07/08 10:33:48;;;;;;;2.70;2.23;;;28.60;45.20;;;;;;5029972;28;20490;-85
2022/07/08 10:36:18;;;;;;;4.27;2.10;;;29.30;46.50;;;;;;5023158;28;20439;-84
2022/07/08 10:38:43;;;;;;;4.47;2.50;;;29.60;46.70;;;;;;5023175;28;20433;-83
2022/07/08 10:41:19;;;;;;;5.97;2.50;;;29.20;45.50;;;;;;5021637;28;20429;-86
2022/07/08 10:43:57;;;;;;;6.37;2.73;;;28.40;46.30;;;;;;5022424;28;20208;-87
2022/07/08 10:46:25;;;;;;;3.93;2.53;;;25.40;46.30;;;;;;5027013;28;20424;-84
2022/07/08 10:49:01;;;;;;;5.83;2.20;;;24.10;50.40;;;;;;5020978;28;20440;-86
2022/07/08 10:51:28;;;;;;;4.63;2.20;;;23.80;52.80;;;;;;5024457;28;20944;-88
2022/07/08 10:53:55;;;;;;;5.30;2.10;;;23.70;53.20;;;;;;5050837;22;20496;-89
2022/07/08 10:56:48;;;;;;;7.97;3.00;;;22.90;53.70;;;;;;5021900;28;20472;-89
2022/07/08 10:59:26;;;;;;;3.00;2.10;;;22.50;56.10;;;;;;5017700;28;20437;-89
2022/07/08 11:02:05;;;;;;;7.07;2.10;;;21.60;57.50;;;;;;5030247;28;20470;-88
2022/07/08 11:04:34;;;;;;;3.70;1.67;;;21.60;60.30;;;;;;5023740;28;20440;-87
2022/07/08 11:07:20;;;;;;;2.80;1.90;;;21.70;63.30;;;;;;5014948;28;20452;-87
2022/07/08 11:09:48;;;;;;;2.83;1.70;;;21.60;59.90;;;;;;5018318;28;20436;-87
2022/07/08 11:12:16;;;;;;;2.37;1.83;;;21.40;61.20;;;;;;5015072;28;20432;-89
2022/07/08 11:14:46;;;;;;;4.30;1.87;;;20.90;61.70;;;;;;5015818;28;20465;-88
2022/07/08 11:17:19;;;;;;;3.67;1.50;;;21.40;60.90;;;;;;5022820;28;20518;-88
2022/07/08 11:19:46;;;;;;;5.37;1.60;;;21.60;61.10;;;;;;5021840;28;20476;-87
2022/07/08 11:22:13;;;;;;;3.70;1.57;;;21.80;59.20;;;;;;5011232;28;20976;-88
2022/07/08 11:24:40;;;;;;;5.67;1.90;;;21.50;63.30;;;;;;5015572;28;20441;-89
2022/07/08 11:27:06;;;;;;;4.33;2.10;;;21.40;59.90;;;;;;5017756;28;20982;-87
2022/07/08 11:29:32;;;;;;;5.63;1.60;;;22.30;65.40;;;;;;5014658;28;20452;-86
2022/07/08 11:31:59;;;;;;;3.07;1.60;;;22.00;64.10;;;;;;5012943;28;20825;-87
2022/07/08 11:34:25;;;;;;;4.30;2.00;;;21.90;63.50;;;;;;5022309;28;20472;-89
2022/07/08 11:37:02;;;;;;;5.83;2.00;;;22.10;61.70;;;;;;5011604;28;20445;-89
2022/07/08 11:39:28;;;;;;;3.33;1.80;;;22.00;65.30;;;;;;5013708;28;20185;-88
2022/07/08 11:41:54;;;;;;;4.20;1.70;;;21.90;65.10;;;;;;5024572;28;20429;-88
2022/07/08 11:44:21;;;;;;;4.10;1.83;;;22.10;63.00;;;;;;5011556;28;20444;-88
2022/07/08 11:46:51;;;;;;;6.33;1.37;;;22.00;66.70;;;;;;5011724;28;20510;-87
2022/07/08 11:49:17;;;;;;;2.80;1.47;;;21.30;62.40;;;;;;5013317;28;20447;-89
2022/07/08 11:51:52;;;;;;;4.53;1.50;;;21.40;64.60;;;;;;5008826;28;20823;-87
2022/07/08 11:54:23;;;;;;;4.90;1.80;;;21.80;67.90;;;;;;5017526;28;20473;-89
2022/07/08 11:56:56;;;;;;;5.10;1.90;;;22.00;66.50;;;;;;5014697;28;20507;-87
2022/07/08 11:59:22;;;;;;;7.90;1.70;;;21.90;65.50;;;;;;5009477;28;20820;-87
2022/07/08 12:01:55;;;;;;;3.63;1.70;;;21.70;67.40;;;;;;5009978;28;20443;-87
2022/07/08 12:04:20;;;;;;;10.23;2.00;;;21.60;64.20;;;;;;5010643;28;20450;-87
2022/07/08 12:06:54;;;;;;;6.03;1.90;;;21.60;64.10;;;;;;5025009;28;20465;-87
2022/07/08 12:09:21;;;;;;;3.63;1.47;;;22.10;65.70;;;;;;5015153;28;20448;-88
2022/07/08 12:11:48;;;;;;;4.37;1.73;;;22.00;65.00;;;;;;5026388;28;20460;-88
2022/07/08 12:14:14;;;;;;;3.53;1.60;;;22.10;65.50;;;;;;5022106;28;20465;-87
2022/07/08 12:16:56;;;;;;;1.80;1.30;;;22.30;65.30;;;;;;5011770;28;20470;-87
2022/07/08 12:19:30;;;;;;;14.27;1.90;;;22.40;65.00;;;;;;5017195;28;20178;-87
2022/07/08 12:21:58;;;;;;;4.00;1.70;;;22.40;64.00;;;;;;5031538;28;20479;-89
2022/07/08 12:24:25;;;;;;;4.67;1.80;;;22.30;63.50;;;;;;5020100;28;20555;-89
2022/07/08 12:26:55;;;;;;;2.63;1.70;;;22.40;62.70;;;;;;5019356;28;20522;-88
2022/07/08 12:29:21;;;;;;;6.00;1.70;;;22.70;61.70;;;;;;5010862;28;20451;-88
2022/07/08 12:31:47;;;;;;;3.87;1.50;;;22.90;60.50;;;;;;5011901;28;20449;-88
2022/07/08 12:34:19;;;;;;;3.20;2.30;;;23.00;59.90;;;;;;5016105;28;20585;-89
2022/07/08 12:36:46;;;;;;;2.33;1.57;;;22.90;61.10;;;;;;5021045;28;20267;-89
2022/07/08 12:39:16;;;;;;;3.30;1.90;;;23.00;61.90;;;;;;5015891;28;20451;-88
2022/07/08 12:41:44;;;;;;;7.40;1.97;;;23.20;66.40;;;;;;5015457;28;20440;-89
2022/07/08 12:44:31;;;;;;;7.40;2.30;;;22.90;63.10;;;;;;5005308;28;21035;-89
2022/07/08 12:46:57;;;;;;;8.73;2.27;;;22.70;62.00;;;;;;5010523;28;20490;-89
2022/07/08 12:49:27;;;;;;;4.30;1.50;;;22.70;61.40;;;;;;5011323;28;20437;-87
2022/07/08 12:51:53;;;;;;;5.03;1.73;;;22.90;63.70;;;;;;5014998;28;20440;-89
2022/07/08 12:54:20;;;;;;;9.00;2.07;;;22.80;62.80;;;;;;5024894;28;20473;-88